地図

経路データ

SID SEASON NUMBER BASIN SUBBASIN NAME ISO_TIME NATURE LAT LON WMO_WIND WMO_PRES WMO_AGENCY TRACK_TYPE DIST2LAND LANDFALL IFLAG USA_AGENCY USA_ATCF_ID USA_LAT USA_LON USA_RECORD USA_STATUS USA_WIND USA_PRES USA_SSHS USA_R34_NE USA_R34_SE USA_R34_SW USA_R34_NW USA_R50_NE USA_R50_SE USA_R50_SW USA_R50_NW USA_R64_NE USA_R64_SE USA_R64_SW USA_R64_NW USA_POCI USA_ROCI USA_RMW USA_EYE TOKYO_LAT TOKYO_LON TOKYO_GRADE TOKYO_WIND TOKYO_PRES TOKYO_R50_DIR TOKYO_R50_LONG TOKYO_R50_SHORT TOKYO_R30_DIR TOKYO_R30_LONG TOKYO_R30_SHORT TOKYO_LAND CMA_LAT CMA_LON CMA_CAT CMA_WIND CMA_PRES HKO_LAT HKO_LON HKO_CAT HKO_WIND HKO_PRES NEWDELHI_LAT NEWDELHI_LON NEWDELHI_GRADE NEWDELHI_WIND NEWDELHI_PRES NEWDELHI_CI NEWDELHI_DP NEWDELHI_POCI REUNION_LAT REUNION_LON REUNION_TYPE REUNION_WIND REUNION_PRES REUNION_TNUM REUNION_CI REUNION_RMW REUNION_R34_NE REUNION_R34_SE REUNION_R34_SW REUNION_R34_NW REUNION_R50_NE REUNION_R50_SE REUNION_R50_SW REUNION_R50_NW REUNION_R64_NE REUNION_R64_SE REUNION_R64_SW REUNION_R64_NW BOM_LAT BOM_LON BOM_TYPE BOM_WIND BOM_PRES BOM_TNUM BOM_CI BOM_RMW BOM_R34_NE BOM_R34_SE BOM_R34_SW BOM_R34_NW BOM_R50_NE BOM_R50_SE BOM_R50_SW BOM_R50_NW BOM_R64_NE BOM_R64_SE BOM_R64_SW BOM_R64_NW BOM_ROCI BOM_POCI BOM_EYE BOM_POS_METHOD BOM_PRES_METHOD NADI_LAT NADI_LON NADI_CAT NADI_WIND NADI_PRES WELLINGTON_LAT WELLINGTON_LON WELLINGTON_WIND WELLINGTON_PRES DS824_LAT DS824_LON DS824_STAGE DS824_WIND DS824_PRES TD9636_LAT TD9636_LON TD9636_STAGE TD9636_WIND TD9636_PRES TD9635_LAT TD9635_LON TD9635_WIND TD9635_PRES TD9635_ROCI NEUMANN_LAT NEUMANN_LON NEUMANN_CLASS NEUMANN_WIND NEUMANN_PRES MLC_LAT MLC_LON MLC_CLASS MLC_WIND MLC_PRES USA_GUST BOM_GUST BOM_GUST_PER REUNION_GUST REUNION_GUST_PER USA_SEAHGT USA_SEARAD_NE USA_SEARAD_SE USA_SEARAD_SW USA_SEARAD_NW STORM_SPEED STORM_DIR
1970043S15163 1970 20 SP MM DOLLY 1970-02-11 12:00:00 TS -15.0200 162.760 40 990 wellington main 398 378 O_______OOO_O_ jtwc_sh SH181970 -15.1000 163.000 -1 -14.9000 162.400 40 990 -15.1000 163.000 TC 35 -15.1000 163.000 2 -14.9000 162.400 TC 15 7 138
1970043S15163 1970 20 SP MM DOLLY 1970-02-11 15:00:00 TS -15.2825 163.007 main 380 360 P_______PPP_P_ SH181970 -15.3551 163.312 -1 -15.1720 162.544 40 990 -15.3551 163.312 TC 35 -15.3177 163.313 2 -15.2125 162.552 TC 15 7 138
1970043S15163 1970 20 SP MM DOLLY 1970-02-11 18:00:00 TS -15.5387 163.238 main 362 344 O_______POP_O_ jtwc_sh SH181970 -15.6000 163.600 -1 -15.4452 162.690 40 990 -15.6000 163.600 TC 35 -15.5482 163.602 2 -15.5000 162.700 TC 15 7 141
1970043S15163 1970 20 SP MM DOLLY 1970-02-11 21:00:00 TS -15.7890 163.440 main 345 328 P_______PPP_P_ SH181970 -15.8350 163.838 -1 -15.7208 162.841 40 990 -15.8350 163.838 TC 35 -15.8045 163.839 2 -15.7500 162.843 TC 17 6 146
1970043S15163 1970 20 SP MM DOLLY 1970-02-12 00:00:00 TS -16.0600 163.600 40 990 wellington main 330 323 O_______OOO_O_ jtwc_sh SH181970 -16.1000 164.000 -1 -16.0000 163.000 40 990 -16.1000 164.000 TC 35 -16.1000 164.000 2 -16.0000 163.000 TC 20 7 156
1970043S15163 1970 20 SP MM DOLLY 1970-02-12 03:00:00 TS -16.3827 163.715 main 329 323 P_______PPP_P_ SH181970 -16.4425 164.073 -1 -16.2813 163.171 40 990 -16.4425 164.073 TC 35 -16.4397 164.072 2 -16.3075 163.185 TC 22 7 163
1970043S15163 1970 20 SP MM DOLLY 1970-02-12 06:00:00 TS -16.7093 163.812 main 332 328 O_______POP_O_ jtwc_sh SH181970 -16.8000 164.100 -1 -16.5520 163.368 40 990 -16.8000 164.100 TC 35 -16.7945 164.093 2 -16.6000 163.400 TC 25 7 162
1970043S15163 1970 20 SP MM DOLLY 1970-02-12 09:00:00 TS -17.0057 163.920 main 339 333 P_______PPP_P_ SH181970 -17.1375 164.128 -1 -16.7968 163.605 40 990 -17.1375 164.128 TC 35 -17.1272 164.118 2 -16.8299 163.620 TC 25 6 154
1970043S15163 1970 20 SP MM DOLLY 1970-02-12 12:00:00 TS -17.2400 164.080 40 990 wellington main 333 313 O_______OOO_O_ jtwc_sh SH181970 -17.4000 164.200 -1 -17.0000 163.900 40 990 -17.4000 164.200 TC 35 -17.4000 164.200 2 -17.0000 163.900 TC 25 5 134
1970043S15163 1970 20 SP MM DOLLY 1970-02-12 15:00:00 TS -17.3773 164.320 main 313 302 P_______PPP_P_ SH181970 -17.5299 164.355 -1 -17.1473 164.264 40 990 -17.5299 164.355 TC 35 -17.5641 164.358 2 -17.1150 164.270 TC 25 6 113
1970043S15163 1970 20 SP MM DOLLY 1970-02-12 18:00:00 TS -17.4638 164.634 main 306 273 O_______POP_O_ jtwc_sh SH181970 -17.6000 164.600 -1 -17.2527 164.683 40 990 -17.6000 164.600 TC 35 -17.6665 164.586 2 -17.2000 164.700 TC 25 7 106
1970043S15163 1970 20 SP MM DOLLY 1970-02-12 21:00:00 TS -17.5549 164.991 main 279 245 P_______PPP_P_ SH181970 -17.6998 164.890 -1 -17.3316 165.136 40 990 -17.6998 164.890 TC 35 -17.7357 164.895 2 -17.3074 165.142 TC 27 8 103
1970043S15163 1970 20 SP MM DOLLY 1970-02-13 00:00:00 TS -17.6400 165.420 40 990 wellington main 245 208 O_______OOO_O_ jtwc_sh SH181970 -17.8000 165.300 -1 -17.4000 165.600 40 990 -17.8000 165.300 TC 35 -17.8000 165.300 2 -17.4000 165.600 TC 30 9 100
1970043S15163 1970 20 SP MM DOLLY 1970-02-13 03:00:00 TS -17.7185 165.928 main 208 171 P_______PPP_P_ SH181970 -17.9001 165.863 -1 -17.4535 166.039 43 987 -17.9001 165.863 TC 35 -17.8887 165.823 2 -17.4499 166.050 TC 32 10 99
1970043S15163 1970 20 SP MM DOLLY 1970-02-13 06:00:00 TS -17.7967 166.484 main 171 153 O_______POP_O_ jtwc_sh SH181970 -18.0000 166.500 -1 -17.5046 166.486 47 985 -18.0000 166.500 TC 35 -17.9788 166.433 2 -17.5000 166.500 TC 35 11 99
1970043S15163 1970 20 SP MM DOLLY 1970-02-13 09:00:00 TS -17.8840 167.038 main 154 147 P_______PPP_P_ SH181970 -18.0924 167.115 -1 -17.5784 166.940 51 982 -18.0924 167.115 TC 35 -18.0793 167.076 2 -17.5773 166.943 TC 35 11 101
1970043S15163 1970 20 SP MM DOLLY 1970-02-13 12:00:00 TS -18.0000 167.580 55 980 wellington main 157 156 O_______OOO_O_ jtwc_sh SH181970 -18.2000 167.700 -1 -17.7000 167.400 55 980 -18.2000 167.700 TC 35 -18.2000 167.700 2 -17.7000 167.400 TC 35 10 105
1970043S15163 1970 20 SP MM DOLLY 1970-02-13 15:00:00 TS -18.1452 168.082 main 170 170 P_______PPP_P_ SH181970 -18.3347 168.215 -1 -17.8585 167.848 55 980 -18.3347 168.215 TC 35 -18.3283 168.229 2 -17.8700 167.900 TC 35 10 109
1970043S15163 1970 20 SP MM DOLLY 1970-02-13 18:00:00 TS -18.3306 168.568 main 208 208 O_______POP_O_ jtwc_sh SH181970 -18.5000 168.700 -1 -18.0716 168.307 55 980 -18.5000 168.700 TC 35 -18.4815 168.731 2 -18.1000 168.400 TC 35 10 114
1970043S15163 1970 20 SP MM DOLLY 1970-02-13 21:00:00 TS -18.5455 169.048 main 247 247 P_______PPP_P_ SH181970 -18.6774 169.200 -1 -18.3490 168.787 55 980 -18.6774 169.200 TC 35 -18.6690 169.217 2 -18.3547 168.836 TC 35 10 118
1970043S15163 1970 20 SP MM DOLLY 1970-02-14 00:00:00 TS -18.8200 169.540 55 980 wellington main 305 305 O_______OOO_O_ jtwc_sh SH181970 -18.9000 169.700 -1 -18.7000 169.300 55 980 -18.9000 169.700 TC 35 -18.9000 169.700 2 -18.7000 169.300 TC 35 12 123
1970043S15163 1970 20 SP MM DOLLY 1970-02-14 03:00:00 TS -19.1825 170.078 main 379 379 P_______PPP_P_ SH181970 -19.1774 170.200 -1 -19.1981 169.910 55 980 -19.1774 170.200 TC 35 -19.1897 170.204 2 -19.1700 169.877 TC 37 13 127
1970043S15163 1970 20 SP MM DOLLY 1970-02-14 06:00:00 TS -19.5947 170.631 main 447 447 O_______POP_O_ jtwc_sh SH181970 -19.5000 170.700 -1 -19.7539 170.548 55 980 -19.5000 170.700 TC 35 -19.5196 170.707 2 -19.7000 170.500 TC 40 13 129
1970043S15163 1970 20 SP MM DOLLY 1970-02-14 09:00:00 TS -20.0214 171.183 main 500 494 P_______PPP_P_ SH181970 -19.8499 171.200 -1 -20.2826 171.163 55 980 -19.8499 171.200 TC 35 -19.8647 171.207 2 -20.2602 171.144 TC 40 13 129
1970043S15163 1970 20 SP MM DOLLY 1970-02-14 12:00:00 TS -20.4000 171.700 55 980 wellington main 526 526 O_______OOO_O_ jtwc_sh SH181970 -20.2000 171.700 -1 -20.7000 171.700 55 980 -20.2000 171.700 TC 35 -20.2000 171.700 2 -20.7000 171.700 TC 40 11 125
1970043S15163 1970 20 SP MM DOLLY 1970-02-14 15:00:00 TS -20.6580 172.146 main 553 553 P_______PPP_P_ SH181970 -20.5149 172.208 -1 -20.8878 172.089 55 980 -20.5149 172.208 TC 35 -20.5050 172.179 2 -20.8671 172.046 TC 40 9 120
1970043S15163 1970 20 SP MM DOLLY 1970-02-14 18:00:00 TS -20.8510 172.549 main 586 561 O_______POP_O_ jtwc_sh SH181970 -20.8000 172.700 -1 -20.9609 172.393 55 980 -20.8000 172.700 TC 35 -20.7942 172.650 2 -20.9000 172.300 TC 40 8 117
1970043S15163 1970 20 SP MM DOLLY 1970-02-14 21:00:00 TS -21.0344 172.936 main 561 543 P_______PPP_P_ SH181970 -21.0648 173.150 -1 -20.9787 172.651 55 980 -21.0648 173.150 TC 35 -21.0613 173.122 2 -21.0025 172.607 TC 40 8 115
1970043S15163 1970 20 SP MM DOLLY 1970-02-15 00:00:00 TS -21.1800 173.320 55 980 wellington main 543 519 O_______OOO_O_ jtwc_sh SH181970 -21.3000 173.600 -1 -21.0000 172.900 55 980 -21.3000 173.600 TC 35 -21.3000 173.600 2 -21.0000 172.900 TC 40 8 109
1970043S15163 1970 20 SP MM DOLLY 1970-02-15 03:00:00 TS -21.2852 173.721 main 519 490 P_______PPP_P_ SH181970 -21.5149 174.093 -1 -21.0811 173.144 55 980 -21.5149 174.093 TC 35 -21.5201 174.117 2 -20.7949 173.158 TC 42 8 103
1970043S15163 1970 20 SP MM DOLLY 1970-02-15 06:00:00 TS -21.3582 174.127 main 498 471 O_______POP_O_ jtwc_sh SH181970 -21.7000 174.600 -1 -21.1807 173.397 55 980 -21.7000 174.600 TC 35 -21.7102 174.638 2 -20.5000 173.400 TC 45 8 100
1970043S15163 1970 20 SP MM DOLLY 1970-02-15 09:00:00 TS -21.4135 174.535 main 471 455 P_______PPP_P_ SH181970 -21.8726 175.130 -1 -21.3151 173.701 55 980 -21.8726 175.130 TC 35 -21.8702 175.139 2 -20.1369 173.576 TC 45 8 100
1970043S15163 1970 20 SP MM DOLLY 1970-02-15 12:00:00 TS -21.5000 174.960 55 980 wellington main 449 439 O_______OOO_O_ jtwc_sh SH181970 -22.0000 175.600 -1 -21.5000 174.100 55 980 -22.0000 175.600 TC 35 -22.0000 175.600 2 -20.0000 173.900 TC 45 8 107
1970043S15163 1970 20 SP MM DOLLY 1970-02-15 15:00:00 TS -21.6496 175.390 main 439 439 P_______PPP_P_ SH181970 -22.0572 175.915 -1 -21.7453 174.613 55 980 -22.0572 175.915 TC 35 -22.0526 175.915 2 -20.3357 174.590 TC 45 9 114
1970043S15163 1970 20 SP MM DOLLY 1970-02-15 18:00:00 TS -21.8651 175.845 main 452 446 O_______POP_O_ jtwc_sh SH181970 -22.1000 176.200 -1 -22.0392 175.228 55 980 -22.1000 176.200 TC 35 -22.0862 176.199 2 -21.0000 175.400 TC 45 10 120
1970043S15163 1970 20 SP MM DOLLY 1970-02-15 21:00:00 TS -22.1377 176.310 main 456 456 P_______PPP_P_ SH181970 -22.1544 176.526 -1 -22.3635 175.929 55 980 -22.1544 176.526 TC 35 -22.1520 176.534 2 -21.8642 176.035 TC 45 11 122
1970043S15163 1970 20 SP MM DOLLY 1970-02-16 00:00:00 TS -22.4600 176.880 55 980 wellington main 481 478 O_______OOO_O_ jtwc_sh SH181970 -22.3000 177.000 -1 -22.7000 176.700 55 980 -22.3000 177.000 TC 35 -22.3000 177.000 2 -22.7000 176.700 TC 45 14 119
1970043S15163 1970 20 SP MM DOLLY 1970-02-16 03:00:00 TS -22.8185 177.630 main 504 503 P_______PPP_P_ SH181970 -22.6051 177.725 -1 -23.0623 177.501 55 980 -22.6051 177.725 TC 35 -22.6302 177.687 2 -23.1898 177.513 TC 45 17 116
1970043S15163 1970 20 SP MM DOLLY 1970-02-16 06:00:00 TS -23.1921 178.496 main 548 548 O_______POP_O_ jtwc_sh SH181970 -23.0000 178.600 -1 -23.4246 178.365 55 980 -23.0000 178.600 TC 35 -23.0360 178.515 2 -23.5000 178.400 TC 45 18 115
1970043S15163 1970 20 SP MM DOLLY 1970-02-16 09:00:00 TS -23.5673 179.391 main 605 605 P_______PPP_P_ SH181970 -23.4221 179.477 -1 -23.7494 179.272 55 980 -23.4221 179.477 TC 35 -23.4485 179.437 2 -23.7946 179.293 TC 47 18 112
1970043S15163 1970 20 SP MM DOLLY 1970-02-16 12:00:00 TS -23.8800 180.320 55 980 wellington main 662 662 O_______OOO_O_ jtwc_sh SH181970 -23.8000 -179.600 -1 -24.0000 -179.800 55 980 -23.8000 180.400 TC 35 -23.8000 -179.600 2 -24.0000 -179.800 TC 50 18 107
1970043S15163 1970 20 SP MM DOLLY 1970-02-16 15:00:00 TS -24.0919 181.272 main 723 723 P_______PPP_P_ SH181970 -24.0520 -178.657 -1 -24.1508 -178.811 55 980 -24.0520 -178.657 TC 35 -24.0676 -178.606 2 -24.1368 -178.907 TC 50 18 101
1970043S15163 1970 20 SP MM DOLLY 1970-02-16 18:00:00 TS -24.2155 182.237 main 772 772 O_______POP_O_ jtwc_sh SH181970 -24.2000 -177.700 -1 -24.2224 -177.821 55 980 -24.2000 182.300 TC 35 -24.2553 -177.596 2 -24.2000 -178.000 TC 50 18 96
1970043S15163 1970 20 SP MM DOLLY 1970-02-16 21:00:00 TS -24.2816 183.210 main 835 835 P_______PPP_P_ SH181970 -24.3100 -176.713 -1 -24.2325 -176.895 55 980 -24.3100 -176.713 TC 35 -24.3399 -176.638 2 -24.2156 -176.990 TC 50 17 92
1970043S15163 1970 20 SP MM DOLLY 1970-02-17 00:00:00 TS -24.2600 184.080 55 980 wellington main 890 890 O_______OOO_O_ jtwc_sh SH181970 -24.3000 -175.800 -1 -24.2000 -176.100 55 980 -24.3000 184.200 TC 35 -24.3000 -175.800 2 -24.2000 -176.100 TC 50 14 86
1970043S15163 1970 20 SP MM DOLLY 1970-02-17 03:00:00 TS -24.1912 184.785 main 929 929 P_______PPP_P_ SH181970 -24.1672 -175.002 -1 -24.2518 -175.461 55 980 -24.1672 -175.002 TC 35 -24.1484 -175.091 2 -24.2216 -175.518 TC 50 12 78
1970043S15163 1970 20 SP MM DOLLY 1970-02-17 06:00:00 TS -24.0269 185.324 main 950 950 O_______POP_O_ jtwc_sh SH181970 -23.9000 -174.400 -1 -24.2571 -174.961 55 980 -23.9000 185.600 TC 35 -23.8775 -174.519 2 -24.2000 -175.100 TC 50 10 64
1970043S15163 1970 20 SP MM DOLLY 1970-02-17 09:00:00 TS -23.7782 185.733 main 966 961 P_______PPP_P_ SH181970 -23.5371 -174.003 -1 -24.1589 -174.580 55 980 -23.5371 -174.003 TC 35 -23.5180 -174.088 2 -24.1399 -174.663 TC 52 9 46
1970043S15163 1970 20 SP MM DOLLY 1970-02-17 12:00:00 TS -23.4200 186.000 55 980 wellington main 962 951 O_______OOO_O_ jtwc_sh SH181970 -23.1000 -173.800 -1 -23.9000 -174.300 55 980 -23.1000 186.200 TC 35 -23.1000 -173.800 2 -23.9000 -174.300 TC 55 9 27
1970043S15163 1970 20 SP MM DOLLY 1970-02-17 15:00:00 TS -22.9602 186.185 main 953 917 P_______PPP_P_ SH181970 -22.6649 -173.705 -1 -23.4024 -174.052 55 980 -22.6649 -173.705 TC 35 -22.6865 -173.624 2 -23.3824 -173.989 TC 55 10 14
1970043S15163 1970 20 SP MM DOLLY 1970-02-17 18:00:00 TS -22.4146 186.264 main 917 880 O_______POP_O_ jtwc_sh SH181970 -22.2000 -173.700 -1 -22.7491 -173.899 55 980 -22.2000 186.300 TC 35 -22.2239 -173.579 2 -22.7000 -173.800 TC 55 11 5
1970043S15163 1970 20 SP MM DOLLY 1970-02-17 21:00:00 TS -21.8351 186.291 main 873 839 P_______PPP_P_ SH181970 -21.7150 -173.677 -1 -22.0213 -173.821 55 980 -21.7150 -173.677 TC 35 -21.7244 -173.620 2 -21.9999 -173.748 TC 55 12 0
1970043S15163 1970 20 SP MM DOLLY 1970-02-18 00:00:00 TS -21.2400 186.260 55 980 wellington main 833 782 O_______OOO_O_ jtwc_sh SH181970 -21.2000 -173.700 -1 -21.3000 -173.800 55 980 -21.2000 186.300 TC 35 -21.2000 -173.700 2 -21.3000 -173.800 TC 55 12 355
1970043S15163 1970 20 SP MM DOLLY 1970-02-18 03:00:00 TS -20.6605 186.170 main 782 718 P_______PPP_P_ SH181970 -20.6575 -173.793 -1 -20.6750 -173.842 55 980 -20.6575 -173.793 TC 35 -20.6349 -173.821 2 -20.6775 -173.900 TC 55 12 351
1970043S15163 1970 20 SP MM DOLLY 1970-02-18 06:00:00 TS -20.0859 186.064 main 718 655 O_______POP_O_ jtwc_sh SH181970 -20.1000 -173.900 -1 -20.0750 -173.925 55 980 -20.1000 186.100 TC 35 -20.0547 -173.958 2 -20.1000 -174.000 TC 55 12 351
1970043S15163 1970 20 SP MM DOLLY 1970-02-18 09:00:00 TS -19.5139 185.978 main 655 600 P_______PPP_P_ SH181970 -19.5199 -174.018 -1 -19.5125 -173.995 55 980 -19.5199 -174.018 TC 35 -19.4971 -174.040 2 -19.5200 -174.038 TC 55 11 357
1970043S15163 1970 20 SP MM DOLLY 1970-02-18 12:00:00 TS -19.0000 186.000 55 980 wellington main 600 552 O_______OOO_O_ jtwc_sh SH181970 -19.0000 -174.000 -1 -19.0000 -174.000 55 980 -19.0000 186.000 TC 35 -19.0000 -174.000 2 -19.0000 -174.000 TC 55 10 14
1970043S15163 1970 20 SP MM DOLLY 1970-02-18 15:00:00 TS -18.5838 186.218 main 552 501 P_______PPP_P_ SH181970 -18.6126 -173.717 -1 -18.5133 -173.875 55 980 -18.6126 -173.717 TC 35 -18.6031 -173.712 2 -18.5775 -173.888 TC 55 9 34
1970043S15163 1970 20 SP MM DOLLY 1970-02-18 18:00:00 TS -18.2298 186.542 main 501 462 O_______POP_O_ jtwc_sh SH181970 -18.3000 -173.300 -1 -18.0802 -173.681 55 980 -18.3000 186.700 TC 35 -18.2689 -173.308 2 -18.2000 -173.700 TC 55 10 43
1970043S15163 1970 20 SP MM DOLLY 1970-02-18 21:00:00 TS -17.8905 186.899 main 462 425 P_______PPP_P_ SH181970 -18.0002 -172.862 -1 -17.7070 -173.447 55 980 -18.0002 -172.862 TC 35 -17.9750 -172.875 2 -17.7701 -173.457 TC 55 9 45
1970043S15163 1970 20 SP MM DOLLY 1970-02-19 00:00:00 TS -17.5800 187.220 55 980 wellington main 425 391 O_______OOO_O_ jtwc_sh SH181970 -17.7000 -172.500 -1 -17.4000 -173.200 55 980 -17.7000 187.500 TC 35 -17.7000 -172.500 2 -17.4000 -173.200 TC 55 8 37
1970043S15163 1970 20 SP MM DOLLY 1970-02-19 03:00:00 TS -17.2618 187.389 main 391 358 P_______PPP_P_ SH181970 -17.3348 -172.363 -1 -17.1277 -172.999 55 980 -17.3348 -172.363 TC 35 -17.3491 -172.332 2 -17.1624 -173.000 TC 55 7 25
1970043S15163 1970 20 SP MM DOLLY 1970-02-19 06:00:00 TS -16.9888 187.517 main 358 335 O_______POP_O_ jtwc_sh SH181970 -17.0000 -172.300 -1 -16.9222 -172.788 55 980 -17.0000 187.700 TC 35 -17.0218 -172.228 2 -17.0000 -172.800 TC 55 6 29
1970043S15163 1970 20 SP MM DOLLY 1970-02-19 09:00:00 TS -16.7678 187.678 main 335 313 P_______PPP_P_ SH181970 -16.7400 -172.172 -1 -16.7807 -172.558 55 980 -16.7400 -172.172 TC 35 -16.7586 -172.135 2 -16.8199 -172.572 TC 57 5 45
1970043S15163 1970 20 SP MM DOLLY 1970-02-19 12:00:00 TS -16.6400 187.880 55 980 wellington main 313 313 O_______OOO_O_ jtwc_sh SH181970 -16.6000 -172.000 -1 -16.7000 -172.300 55 980 -16.6000 188.000 TC 35 -16.6000 -172.000 2 -16.7000 -172.300 TC 60 5 72
1970043S15163 1970 20 SP MM DOLLY 1970-02-19 15:00:00 TS -16.6225 188.141 main 315 315 P_______PPP_P_ SH181970 -16.5975 -171.780 -1 -16.6595 -172.000 55 980 -16.5975 -171.780 TC 35 -16.5880 -171.775 2 -16.6700 -171.958 TC 60 5 95
1970043S15163 1970 20 SP MM DOLLY 1970-02-19 18:00:00 TS -16.6910 188.446 main 330 330 O_______POP_O_ jtwc_sh SH181970 -16.7000 -171.500 -1 -16.6751 -171.673 55 980 -16.7000 188.500 TC 35 -16.6797 -171.498 2 -16.7000 -171.600 TC 60 6 106
1970043S15163 1970 20 SP MM DOLLY 1970-02-19 21:00:00 TS -16.7974 188.768 main 352 352 P_______PPP_P_ SH181970 -16.8424 -171.180 -1 -16.7282 -171.334 55 980 -16.8424 -171.180 TC 35 -16.8316 -171.172 2 -16.7424 -171.293 TC 60 7 110
1970043S15163 1970 20 SP MM DOLLY 1970-02-20 00:00:00 TS -16.9200 189.120 55 980 wellington main 373 373 O_______OOO_O_ jtwc_sh SH181970 -17.0000 -170.800 -1 -16.8000 -171.000 55 980 -17.0000 189.200 TC 35 -17.0000 -170.800 2 -16.8000 -171.000 TC 60 7 106
1970043S15163 1970 20 SP MM DOLLY 1970-02-20 03:00:00 TS -16.9944 189.494 main 401 401 P_______PPP_P_ SH181970 -17.1000 -170.365 -1 -16.8113 -170.728 55 980 -17.1000 -170.365 TC 35 -17.1182 -170.373 2 -16.8425 -170.700 TC 60 8 102
1970043S15163 1970 20 SP MM DOLLY 1970-02-20 06:00:00 TS -17.0774 189.887 main 432 432 O_______POP_O_ jtwc_sh SH181970 -17.2000 -169.900 -1 -16.8440 -170.458 55 980 -17.2000 190.100 TC 35 -17.2431 -169.908 2 -16.9000 -170.400 TC 60 8 105
1970043S15163 1970 20 SP MM DOLLY 1970-02-20 09:00:00 TS -17.1912 190.282 main 465 465 P_______PPP_P_ SH181970 -17.3500 -169.428 -1 -16.9298 -170.159 55 980 -17.3500 -169.428 TC 35 -17.3713 -169.439 2 -16.9547 -170.137 TC 60 8 109
1970043S15163 1970 20 SP MM DOLLY 1970-02-20 12:00:00 TS -17.3400 190.680 55 980 wellington main 500 500 O_______OOO_O_ jtwc_sh SH181970 -17.5000 -169.000 -1 -17.1000 -169.800 55 980 -17.5000 191.000 TC 35 -17.5000 -169.000 2 -17.1000 -169.800 TC 60 8 115
1970043S15163 1970 20 SP MM DOLLY 1970-02-20 15:00:00 TS -17.5257 191.050 main 537 537 P_______PPP_P_ SH181970 -17.5998 -168.685 -1 -17.4208 -169.377 55 980 -17.5998 -168.685 TC 35 -17.6028 -168.723 2 -17.4052 -169.280 TC 60 8 120
1970043S15163 1970 20 SP MM DOLLY 1970-02-20 18:00:00 TS -17.7457 191.429 main 582 582 O_______POP_O_ jtwc_sh SH181970 -17.7000 -168.400 -1 -17.8191 -168.886 55 980 -17.7000 191.600 TC 35 -17.7095 -168.468 2 -17.8000 -168.700 TC 60 9 123
1970043S15163 1970 20 SP MM DOLLY 1970-02-20 21:00:00 TS -17.9936 191.808 main 635 635 P_______PPP_P_ SH181970 -17.8344 -168.125 -1 -18.2329 -168.327 55 980 -17.8344 -168.125 TC 35 -17.8366 -168.154 2 -18.2295 -168.230 TC 60 10 121
1970043S15163 1970 20 SP MM DOLLY 1970-02-21 00:00:00 TS -18.2400 192.300 55 980 wellington main 688 688 O_______OOO_O_ jtwc_sh SH181970 -18.0000 -167.700 -1 -18.6000 -167.700 55 980 -18.0000 192.300 TC 35 -18.0000 -167.700 2 -18.6000 -167.700 TC 60 12 110
1970043S15163 1970 20 SP MM DOLLY 1970-02-21 03:00:00 TS -18.4233 193.022 main 757 757 P_______PPP_P_ SH181970 -18.1776 -166.982 -1 -18.7968 -166.988 55 980 -18.1776 -166.982 TC 35 -18.1843 -166.952 2 -18.7801 -166.987 TC 60 15 104
1970043S15163 1970 20 SP MM DOLLY 1970-02-21 06:00:00 TS -18.6101 193.863 main 844 844 O_______POP_O_ jtwc_sh SH181970 -18.4000 -166.100 -1 -18.9438 -166.220 55 980 -18.4000 193.900 TC 35 -18.4065 -166.068 2 -18.9000 -166.200 TC 60 17 104
1970043S15163 1970 20 SP MM DOLLY 1970-02-21 09:00:00 TS -18.8344 194.731 main 924 924 P_______PPP_P_ SH181970 -18.6704 -165.163 -1 -19.0937 -165.441 55 980 -18.6704 -165.163 TC 35 -18.6750 -165.149 2 -19.0625 -165.427 TC 60 17 108
1970043S15163 1970 20 SP MM DOLLY 1970-02-21 12:00:00 TS -19.1200 195.540 55 980 wellington main 1012 1012 O_______OOO_O_ jtwc_sh SH181970 -19.0000 -164.300 -1 -19.3000 -164.700 55 980 -19.0000 195.700 TC 35 -19.0000 -164.300 2 -19.3000 -164.700 TC 60 15 116
1970043S15163 1970 20 SP MM DOLLY 1970-02-21 15:00:00 TS -19.4832 196.158 main 1098 1098 P_______PPP_P_ SH181970 -19.3693 -163.697 -1 -19.6340 -164.053 57 977 -19.3693 -163.697 TC 35 -19.3737 -163.687 2 -19.6696 -164.077 TC 62 14 126
1970043S15163 1970 20 SP MM DOLLY 1970-02-21 18:00:00 TS -19.9075 196.700 main 1167 1167 O_______POP_O_ jtwc_sh SH181970 -19.8000 -163.200 -1 -20.0309 -163.448 60 975 -19.8000 196.800 TC 35 -19.8066 -163.152 2 -20.1000 -163.500 TC 65 14 131
1970043S15163 1970 20 SP MM DOLLY 1970-02-21 21:00:00 TS -20.3605 197.249 main 1241 1241 P_______PPP_P_ SH181970 -20.2771 -162.672 -1 -20.4624 -162.868 62 972 -20.2771 -162.672 TC 35 -20.2863 -162.642 2 -20.4998 -162.900 TC 65 14 132
1970043S15163 1970 20 SP MM DOLLY 1970-02-22 00:00:00 TS -20.8400 197.820 65 970 wellington main 1318 1318 O_______OOO_O_ jtwc_sh SH181970 -20.8000 -162.100 -1 -20.9000 -162.300 65 970 -20.8000 197.900 TC 35 -20.8000 -162.100 2 -20.9000 -162.300 TC 65 15 130
1970043S15163 1970 20 SP MM DOLLY 1970-02-22 03:00:00 TS -21.3192 198.452 main 1410 1410 P_______PPP_P_ SH181970 -21.3425 -161.422 -1 -21.2659 -161.751 66 968 -21.3425 -161.422 TC 35 -21.3453 -161.452 2 -21.2999 -161.692 TC 67 15 129
1970043S15163 1970 20 SP MM DOLLY 1970-02-22 06:00:00 TS -21.8104 199.107 main 1493 1493 O_______POP_O_ jtwc_sh SH181970 -21.9000 -160.700 -1 -21.6376 -161.205 67 967 -21.9000 199.300 TC 35 -21.9145 -160.761 2 -21.7000 -161.100 TC 70 16 129
1970043S15163 1970 20 SP MM DOLLY 1970-02-22 09:00:00 TS -22.3061 199.750 main 1584 1584 P_______PPP_P_ SH181970 -22.4722 -160.000 -1 -22.0406 -160.632 68 966 -22.4722 -160.000 TC 35 -22.4764 -160.039 2 -22.0693 -160.579 TC 70 16 129
1970043S15163 1970 20 SP MM DOLLY 1970-02-22 12:00:00 TS -22.8000 200.420 70 965 wellington main 1666 1666 O_______OOO_O_ jtwc_sh SH181970 -23.0000 -159.300 -1 -22.5000 -160.000 70 965 -23.0000 200.700 TC 35 -23.0000 -159.300 2 -22.5000 -160.000 TC 70 16 128
1970043S15163 1970 20 SP MM DOLLY 1970-02-22 15:00:00 TS -23.2783 201.123 main 1757 1757 P_______PPP_P_ SH181970 -23.4220 -158.614 -1 -23.0487 -159.320 68 966 -23.4220 -158.614 TC 35 -23.4287 -158.601 2 -23.0701 -159.238 TC 70 16 126
1970043S15163 1970 20 SP MM DOLLY 1970-02-22 18:00:00 TS -23.7542 201.869 main 1856 1856 O_______POP_O_ jtwc_sh SH181970 -23.8000 -157.900 -1 -23.6517 -158.570 67 967 -23.8000 202.100 TC 35 -23.8191 -157.884 2 -23.7000 -158.400 TC 70 17 124
1970043S15163 1970 20 SP MM DOLLY 1970-02-22 21:00:00 TS -24.2323 202.645 main 1940 1940 P_______PPP_P_ SH181970 -24.1919 -157.137 -1 -24.2789 -157.735 66 968 -24.1919 -157.137 TC 35 -24.2000 -157.126 2 -24.2988 -157.644 TC 67 18 123
1970043S15163 1970 20 SP MM DOLLY 1970-02-23 00:00:00 TS -24.7200 203.500 65 970 wellington main 2046 2046 O_______OOO_O_ jtwc_sh SH181970 -24.6000 -156.300 -1 -24.9000 -156.800 65 970 -24.6000 203.700 TC 35 -24.6000 -156.300 2 -24.9000 -156.800 TC 65 19 121
1970043S15163 1970 20 SP MM DOLLY 1970-02-23 03:00:00 TS -25.2284 204.480 main 2161 2161 P_______PPP_P_ SH181970 -25.0345 -155.387 -1 -25.5080 -155.705 62 972 -25.0345 -155.387 TC 35 -25.0500 -155.363 2 -25.5147 -155.760 TC 62 21 119
1970043S15163 1970 20 SP MM DOLLY 1970-02-23 06:00:00 TS -25.7431 205.544 main 2276 2276 O_______POP_O_ jtwc_sh SH181970 -25.5000 -154.400 -1 -26.0946 -154.520 60 975 -25.5000 205.600 TC 35 -25.5208 -154.359 2 -26.1000 -154.600 TC 60 22 118
1970043S15163 1970 20 SP MM DOLLY 1970-02-23 09:00:00 TS -26.2539 206.658 main 2413 2413 P_______PPP_P_ SH181970 -25.9924 -153.350 -1 -26.6332 -153.324 57 977 -25.9924 -153.350 TC 35 -26.0060 -153.325 2 -26.6455 -153.363 TC 55 22 117
1970043S15163 1970 20 SP MM DOLLY 1970-02-23 12:00:00 TS -26.7400 207.740 55 980 wellington main 2521 2521 O_______OOO_O_ jtwc_sh SH181970 -26.5000 -152.300 -1 -27.1000 -152.200 55 980 -26.5000 207.700 TC 35 -26.5000 -152.300 2 -27.1000 -152.200 TC 50 20 117
1970043S15163 1970 20 SP MM DOLLY 1970-02-23 15:00:00 TS -27.1908 208.675 main 2635 2635 P_______PPP_P_ SH181970 -26.9990 -151.334 -1 -27.4786 -151.275 55 980 -26.9990 -151.334 TC 35 -27.0487 -151.385 2 -27.4284 -151.296 TC 45 18 118
1970043S15163 1970 20 SP MM DOLLY 1970-02-23 18:00:00 TS -27.6176 209.558 main 2734 2734 O_______POP_O_ jtwc_sh SH181970 -27.5000 -150.400 -1 -27.7903 -150.434 55 980 -27.5000 209.600 TC 35 -27.5976 -150.476 2 -27.7000 -150.500 TC 40 18 119
1970043S15163 1970 20 SP MM DOLLY 1970-02-23 21:00:00 TS -28.0469 210.444 main 2824 2824 P_______PPP_P_ SH181970 -28.0362 -149.480 -1 -28.0572 -149.626 55 980 -28.0362 -149.480 TC 35 -28.0980 -149.529 2 -28.0067 -149.665 TC 37 18 117
1970043S15163 1970 20 SP MM DOLLY 1970-02-24 00:00:00 TS -28.4200 211.380 55 980 wellington main 2932 2932 O_______OOO_O_ jtwc_sh SH181970 -28.5000 -148.500 -1 -28.3000 -148.800 55 980 -28.5000 211.500 TC 35 -28.5000 -148.500 2 -28.3000 -148.800 TC 35 18 111
1970043S15163 1970 20 SP MM DOLLY 1970-02-24 03:00:00 TS -28.7049 212.403 main 3033 3033 P_______PPP_P_ SH181970 -28.8239 -147.410 -1 -28.5458 -147.945 51 982 -28.8239 -147.410 TC 35 -28.7665 -147.358 2 -28.5646 -147.865 TC 32 19 104
1970043S15163 1970 20 SP MM DOLLY 1970-02-24 06:00:00 TS -28.8846 213.448 main 3130 3130 O_______POP_O_ jtwc_sh SH181970 -29.0000 -146.200 -1 -28.7724 -147.053 47 985 -29.0000 213.800 TC 35 -28.9161 -146.122 2 -28.8000 -146.900 TC 30 18 100
1970043S15163 1970 20 SP MM DOLLY 1970-02-24 09:00:00 TS -29.0072 214.461 main 3231 3231 P_______PPP_P_ SH181970 -29.0406 -144.879 -1 -28.9881 -146.085 43 987 -29.0406 -144.879 TC 35 -28.9825 -144.826 2 -29.0054 -146.009 TC 27 17 99
1970043S15163 1970 20 SP MM DOLLY 1970-02-24 12:00:00 TS -29.1455 215.409 40 990 wellington main 3314 3314 O_______OOO_O_ jtwc_sh SH181970 -29.0000 -143.500 -1 -29.2000 -145.000 40 990 -29.0000 216.500 TC 35 -29.0000 -143.500 2 -29.2000 -145.000 TC 25 16 104
1970043S15163 1970 20 SP MM DOLLY 1970-02-24 15:00:00 TS -29.4060 216.257 main 3407 3407 ________P___P_ SH181970 -1 -29.4119 -143.769 40 990 TC 2 -29.4000 -143.717 TC 22 20 103
1970043S15163 1970 20 SP MM DOLLY 1970-02-24 18:00:00 TS -29.6097 217.642 main 3531 3531 ________P___O_ -1 -29.6194 -142.416 40 990 2 -29.6000 -142.300 TC 20 25 99
1970043S15163 1970 20 SP MM DOLLY 1970-02-24 21:00:00 TS -29.8095 219.064 main 3673 3673 ________P___P_ -1 -29.8168 -140.980 40 990 2 -29.8022 -140.891 TC 20 25 99
1970043S15163 1970 20 SP MM DOLLY 1970-02-25 00:00:00 TS -30.0000 220.500 40 990 wellington main 3807 ________O___O_ -1 -30.0000 -139.500 40 990 -30.0000 -139.500 TC 20 25 99

デジタル台風データ・検索

IBTrACS Databaseについて

本データベースは、米国NOAAが公開する1842年以降の世界の熱帯低気圧のベストトラックデータアーカイブInternational Best Track Archive for Climate Stewardship (IBTrACS)を、ウェブで閲覧しやすい形式に変換したものです。

最終更新日:2021-10-21